Time;durP1;ratioP1;P1;durP2;ratioP2;P2;SDS_P1;SDS_P2;PMS_P1;PMS_P2;Temp;Humidity;BMP_temperature;BMP_pressure;BME280_temperature;BME280_humidity;BME280_pressure;Samples;Min_cycle;Max_cycle;Signal;HPM_P1;HPM_P2
2023/10/21 00:02:04;;;;;;;46.78;23.33;;;9.40;99.90;;;;;;5073790;28;20406;-78
2023/10/21 00:04:30;;;;;;;37.45;18.80;;;9.40;99.90;;;;;;5072922;28;20048;-78
2023/10/21 00:06:56;;;;;;;54.85;24.27;;;9.40;99.90;;;;;;5072269;28;20104;-78
2023/10/21 00:09:22;;;;;;;52.03;22.52;;;9.40;99.90;;;;;;5069667;28;20141;-78
2023/10/21 00:11:47;;;;;;;55.47;24.55;;;9.40;99.90;;;;;;5072806;28;20436;-78
2023/10/21 00:14:14;;;;;;;40.30;19.77;;;9.40;99.90;;;;;;5072969;28;20048;-78
2023/10/21 00:16:40;;;;;;;49.92;22.42;;;9.40;99.90;;;;;;5072740;28;20071;-78
2023/10/21 00:19:05;;;;;;;58.08;24.70;;;9.40;99.90;;;;;;5072085;28;20045;-78
2023/10/21 00:21:31;;;;;;;55.10;24.35;;;9.40;99.90;;;;;;5074266;28;20048;-78
2023/10/21 00:23:57;;;;;;;59.70;25.48;;;9.50;99.90;;;;;;5072389;28;20127;-76
2023/10/21 00:26:23;;;;;;;58.22;23.83;;;9.50;99.90;;;;;;5072603;28;20064;-76
2023/10/21 00:28:49;;;;;;;64.30;25.23;;;9.50;99.90;;;;;;5072643;28;20123;-75
2023/10/21 00:31:14;;;;;;;74.00;30.77;;;9.50;99.90;;;;;;5072614;28;20045;-76
2023/10/21 00:33:40;;;;;;;63.60;27.10;;;9.60;99.90;;;;;;5072333;28;20048;-76
2023/10/21 00:36:06;;;;;;;67.53;27.77;;;9.60;99.90;;;;;;5073228;28;20045;-76
2023/10/21 00:38:32;;;;;;;59.70;25.08;;;9.60;99.90;;;;;;5072011;28;20055;-76
2023/10/21 00:40:57;;;;;;;62.53;23.63;;;9.60;99.90;;;;;;5070566;28;20116;-76
2023/10/21 00:43:40;;;;;;;68.18;26.02;;;9.70;99.90;;;;;;5072698;28;20509;-77
2023/10/21 00:46:08;;;;;;;66.05;25.67;;;9.70;99.90;;;;;;5073046;28;20044;-76
2023/10/21 00:48:34;;;;;;;61.90;27.02;;;9.70;99.90;;;;;;5070561;28;20066;-76
2023/10/21 00:51:00;;;;;;;56.83;27.58;;;9.70;99.90;;;;;;5071574;28;20055;-76
2023/10/21 00:53:27;;;;;;;57.25;25.15;;;9.70;99.90;;;;;;5072435;28;20052;-77
2023/10/21 00:55:53;;;;;;;65.18;25.73;;;9.70;99.90;;;;;;5072501;28;20537;-76
2023/10/21 00:58:19;;;;;;;56.45;26.33;;;9.70;99.90;;;;;;5073111;28;20044;-76
2023/10/21 01:00:45;;;;;;;56.00;24.42;;;9.80;99.90;;;;;;5071714;28;20044;-76
2023/10/21 01:03:11;;;;;;;49.53;25.08;;;9.80;99.90;;;;;;5072311;28;20042;-76
2023/10/21 01:05:37;;;;;;;50.70;24.48;;;9.80;99.90;;;;;;5072209;28;20048;-77
2023/10/21 01:08:03;;;;;;;51.47;24.42;;;9.90;99.90;;;;;;5055000;28;20044;-75
2023/10/21 01:10:29;;;;;;;54.85;25.95;;;9.90;99.90;;;;;;5070906;28;20413;-78
2023/10/21 01:12:55;;;;;;;49.67;24.42;;;9.90;99.90;;;;;;5087957;28;20048;-78
2023/10/21 01:15:20;;;;;;;60.65;28.27;;;10.00;99.90;;;;;;5055496;28;20044;-76
2023/10/21 01:17:52;;;;;;;58.50;25.20;;;10.00;99.90;;;;;;5055275;28;20047;-75
2023/10/21 01:20:18;;;;;;;57.15;26.73;;;9.90;99.90;;;;;;5071035;28;20110;-77
2023/10/21 01:22:44;;;;;;;46.25;24.08;;;10.00;99.90;;;;;;5072402;28;20095;-76
2023/10/21 01:25:09;;;;;;;59.35;25.17;;;10.00;99.90;;;;;;5071201;28;20502;-76
2023/10/21 01:27:35;;;;;;;69.90;27.63;;;10.00;99.90;;;;;;5055074;28;20072;-76
2023/10/21 01:30:01;;;;;;;62.10;28.33;;;9.90;99.90;;;;;;5071204;28;20075;-76
2023/10/21 01:32:27;;;;;;;57.63;26.85;;;9.90;99.90;;;;;;5070230;28;20090;-77
2023/10/21 01:34:53;;;;;;;51.75;24.05;;;10.00;99.90;;;;;;5058943;28;20503;-77
2023/10/21 01:37:20;;;;;;;55.72;25.73;;;9.90;99.90;;;;;;5056809;28;20095;-76
2023/10/21 01:39:46;;;;;;;62.55;27.00;;;9.90;99.90;;;;;;5063873;28;20040;-77
2023/10/21 01:42:12;;;;;;;50.67;25.10;;;10.00;99.90;;;;;;5069672;28;20045;-76
2023/10/21 01:44:37;;;;;;;57.08;25.90;;;9.90;99.90;;;;;;5051040;28;20378;-76
2023/10/21 01:47:03;;;;;;;59.75;25.92;;;9.90;99.90;;;;;;5067709;28;20090;-76
2023/10/21 01:49:29;;;;;;;57.80;24.42;;;9.90;99.90;;;;;;5072559;28;20122;-77
2023/10/21 01:51:54;;;;;;;58.63;24.23;;;9.90;99.90;;;;;;5070585;28;20100;-77
2023/10/21 01:54:20;;;;;;;56.58;24.17;;;9.80;99.90;;;;;;5061914;28;20087;-76
2023/10/21 01:56:46;;;;;;;38.17;19.30;;;9.80;99.90;;;;;;5072044;28;20498;-77
2023/10/21 01:59:12;;;;;;;60.17;25.85;;;9.80;99.90;;;;;;5063456;28;20041;-76
2023/10/21 02:01:37;;;;;;;54.92;25.25;;;9.80;99.90;;;;;;5070343;28;20402;-76
2023/10/21 02:04:05;;;;;;;52.65;25.42;;;9.80;99.90;;;;;;5070804;28;20457;-76
2023/10/21 02:06:31;;;;;;;40.17;20.10;;;9.80;99.90;;;;;;5070875;28;20052;-76
2023/10/21 02:08:56;;;;;;;49.90;24.20;;;9.70;99.90;;;;;;5070717;28;20414;-77
2023/10/21 02:11:24;;;;;;;49.95;26.15;;;9.80;99.90;;;;;;5053343;28;20067;-76
2023/10/21 02:13:50;;;;;;;42.28;20.10;;;9.80;99.90;;;;;;5072109;28;20406;-77
2023/10/21 02:16:16;;;;;;;53.70;24.42;;;9.70;99.90;;;;;;5070450;28;20123;-77
2023/10/21 02:18:42;;;;;;;55.13;24.92;;;9.70;99.90;;;;;;5070839;28;20055;-78
2023/10/21 02:21:09;;;;;;;52.05;24.40;;;9.70;99.90;;;;;;5068337;28;20160;-77
2023/10/21 02:23:35;;;;;;;41.42;21.52;;;9.70;99.90;;;;;;5069400;28;20123;-78
2023/10/21 02:26:03;;;;;;;45.08;23.40;;;9.70;99.90;;;;;;5070883;28;20082;-77
2023/10/21 02:28:29;;;;;;;50.63;25.40;;;9.60;99.90;;;;;;5071487;28;20102;-77
2023/10/21 02:30:55;;;;;;;50.78;24.52;;;9.60;99.90;;;;;;5072150;28;20044;-78
2023/10/21 02:33:22;;;;;;;55.13;25.17;;;9.70;99.90;;;;;;5069864;28;20123;-77
2023/10/21 02:35:52;;;;;;;49.78;20.48;;;9.60;99.90;;;;;;5070759;28;20053;-77
2023/10/21 02:38:19;;;;;;;42.83;21.10;;;9.60;99.90;;;;;;5070183;28;20053;-77
2023/10/21 02:40:45;;;;;;;46.53;21.95;;;9.60;99.90;;;;;;5070613;28;20098;-77
2023/10/21 02:43:11;;;;;;;52.33;25.63;;;9.60;99.90;;;;;;5073355;28;20033;-77
2023/10/21 02:45:36;;;;;;;52.42;25.10;;;9.50;99.90;;;;;;5074946;28;20048;-77
2023/10/21 02:48:02;;;;;;;53.60;26.90;;;9.50;99.90;;;;;;5075752;28;20060;-77
2023/10/21 02:50:28;;;;;;;49.17;25.40;;;9.50;99.90;;;;;;5056922;28;20053;-77
2023/10/21 02:52:54;;;;;;;37.67;20.25;;;9.50;99.90;;;;;;5074160;28;20090;-77
2023/10/21 02:55:19;;;;;;;49.45;24.95;;;9.50;99.90;;;;;;5073896;28;20036;-77
2023/10/21 02:57:45;;;;;;;51.88;24.38;;;9.50;99.90;;;;;;5074708;28;20149;-77
2023/10/21 03:00:15;;;;;;;54.20;27.00;;;9.40;99.90;;;;;;5073968;28;20513;-77
2023/10/21 03:02:44;;;;;;;56.17;24.38;;;9.40;99.90;;;;;;5057893;28;20040;-77
2023/10/21 03:05:12;;;;;;;50.88;24.50;;;9.40;99.90;;;;;;5074582;28;20055;-76
2023/10/21 03:07:37;;;;;;;53.78;24.67;;;9.40;99.90;;;;;;5074670;28;20048;-77
2023/10/21 03:10:03;;;;;;;49.65;22.63;;;9.40;99.90;;;;;;5091043;28;20052;-78
2023/10/21 03:12:29;;;;;;;49.30;23.85;;;9.30;99.90;;;;;;5073627;28;20044;-77
2023/10/21 03:14:56;;;;;;;46.67;21.15;;;9.40;99.90;;;;;;5073706;28;20494;-77
2023/10/21 03:17:22;;;;;;;49.08;23.45;;;9.40;99.90;;;;;;5057000;28;20124;-77
2023/10/21 03:19:47;;;;;;;56.25;27.85;;;9.40;99.90;;;;;;5074324;28;20123;-77
2023/10/21 03:22:13;;;;;;;60.38;25.90;;;9.40;99.90;;;;;;5074400;28;20058;-76
2023/10/21 03:24:39;;;;;;;52.95;24.38;;;9.40;99.90;;;;;;5073721;28;20533;-77
2023/10/21 03:27:04;;;;;;;57.40;27.10;;;9.40;99.90;;;;;;5073544;28;20118;-78
2023/10/21 03:29:30;;;;;;;39.22;19.13;;;9.40;99.90;;;;;;5074109;28;20128;-78
2023/10/21 03:31:56;;;;;;;59.53;26.50;;;9.40;99.90;;;;;;5057286;28;20041;-78
2023/10/21 03:34:21;;;;;;;56.08;25.67;;;9.50;99.90;;;;;;5072820;28;20094;-77
2023/10/21 03:36:47;;;;;;;62.15;27.98;;;9.50;99.90;;;;;;5073653;28;20048;-78
2023/10/21 03:39:13;;;;;;;63.75;26.85;;;9.50;99.90;;;;;;5074128;28;20383;-76
2023/10/21 03:41:39;;;;;;;65.50;28.50;;;9.50;99.90;;;;;;5073509;28;20080;-78
2023/10/21 03:44:05;;;;;;;60.25;29.17;;;9.50;99.90;;;;;;5075092;28;20036;-78
2023/10/21 03:46:30;;;;;;;61.33;28.08;;;9.50;99.90;;;;;;5056282;28;20509;-77
2023/10/21 03:48:56;;;;;;;73.35;30.05;;;9.50;99.90;;;;;;5074978;28;20045;-77
2023/10/21 03:51:22;;;;;;;50.50;22.25;;;9.50;99.90;;;;;;5073034;28;20057;-78
2023/10/21 03:53:48;;;;;;;67.43;25.05;;;9.50;99.90;;;;;;5073404;28;20059;-77
2023/10/21 03:56:14;;;;;;;66.93;23.10;;;9.50;99.90;;;;;;5073487;28;20056;-78
2023/10/21 03:58:41;;;;;;;64.00;27.13;;;9.40;99.90;;;;;;5074136;28;20049;-78
2023/10/21 04:01:07;;;;;;;62.90;28.80;;;9.50;99.90;;;;;;5073611;28;20067;-78
2023/10/21 04:03:34;;;;;;;64.47;26.70;;;9.50;99.90;;;;;;5072648;28;20044;-77
2023/10/21 04:06:00;;;;;;;62.28;26.38;;;9.50;99.90;;;;;;5073211;28;20045;-78
2023/10/21 04:08:27;;;;;;;60.78;26.85;;;9.50;99.90;;;;;;5055234;28;20413;-77
2023/10/21 04:10:54;;;;;;;58.03;24.92;;;9.50;99.90;;;;;;5073073;28;20037;-78
2023/10/21 04:13:20;;;;;;;70.55;29.50;;;9.50;99.90;;;;;;5072823;28;20146;-76
2023/10/21 04:15:46;;;;;;;70.70;28.00;;;9.50;99.90;;;;;;5073889;28;20094;-78
2023/10/21 04:18:13;;;;;;;57.75;23.25;;;9.50;99.90;;;;;;5074233;28;20049;-77
2023/10/21 04:20:39;;;;;;;74.13;26.08;;;9.50;99.90;;;;;;5072409;28;20044;-78
2023/10/21 04:23:05;;;;;;;61.08;24.70;;;9.50;99.90;;;;;;5073972;28;20055;-78
2023/10/21 04:25:31;;;;;;;76.25;28.63;;;9.50;99.90;;;;;;5055249;28;20048;-77
2023/10/21 04:27:57;;;;;;;64.93;26.90;;;9.40;99.90;;;;;;5089513;28;20128;-77
2023/10/21 04:30:23;;;;;;;77.90;28.45;;;9.50;99.90;;;;;;5072157;28;20041;-75
2023/10/21 04:32:50;;;;;;;72.15;26.73;;;9.50;99.90;;;;;;5073668;28;20094;-77
2023/10/21 04:35:15;;;;;;;54.72;25.63;;;9.50;99.90;;;;;;5061661;28;20751;-77
2023/10/21 04:37:41;;;;;;;60.72;27.45;;;9.50;99.90;;;;;;5046641;28;20049;-77
2023/10/21 04:40:08;;;;;;;53.97;23.95;;;9.50;99.90;;;;;;5043457;28;20049;-77
2023/10/21 04:42:34;;;;;;;49.40;25.08;;;9.50;99.90;;;;;;5065124;28;20044;-77
2023/10/21 04:45:00;;;;;;;52.83;25.02;;;9.40;99.90;;;;;;5072199;28;20105;-78
2023/10/21 04:47:27;;;;;;;47.40;24.20;;;9.40;99.90;;;;;;5072566;28;20057;-77
2023/10/21 04:49:53;;;;;;;50.38;23.23;;;9.40;99.90;;;;;;5088901;28;20495;-78
2023/10/21 04:52:19;;;;;;;40.03;21.17;;;9.40;99.90;;;;;;5073354;28;20131;-78
2023/10/21 04:54:45;;;;;;;39.75;22.50;;;9.40;99.90;;;;;;5071676;28;20151;-78
2023/10/21 04:57:11;;;;;;;38.63;17.90;;;9.30;99.90;;;;;;5071962;28;20126;-78
2023/10/21 04:59:38;;;;;;;38.38;21.45;;;9.40;99.90;;;;;;5088611;28;20113;-79
2023/10/21 05:02:05;;;;;;;42.30;20.23;;;9.40;99.90;;;;;;5072989;28;20182;-78
2023/10/21 05:04:31;;;;;;;41.00;21.70;;;9.30;99.90;;;;;;5071623;28;20059;-78
2023/10/21 05:06:57;;;;;;;41.08;21.67;;;9.30;99.90;;;;;;5072608;28;20052;-77
2023/10/21 05:09:23;;;;;;;32.58;18.65;;;9.30;99.90;;;;;;5071450;28;20379;-77
2023/10/21 05:11:49;;;;;;;37.97;19.40;;;9.30;99.90;;;;;;5070850;28;20063;-77
2023/10/21 05:14:15;;;;;;;36.75;19.73;;;9.30;99.90;;;;;;5071885;28;20131;-78
2023/10/21 05:16:40;;;;;;;35.17;19.25;;;9.30;99.90;;;;;;5070954;28;20497;-77
2023/10/21 05:19:06;;;;;;;37.50;19.38;;;9.30;99.90;;;;;;5071591;28;20041;-79
2023/10/21 05:21:32;;;;;;;33.38;17.65;;;9.20;99.90;;;;;;5071247;28;20052;-76
2023/10/21 05:23:58;;;;;;;29.77;16.45;;;9.20;99.90;;;;;;5071620;28;20040;-78
2023/10/21 05:26:28;;;;;;;37.55;20.10;;;9.20;99.90;;;;;;5071316;28;20048;-78
2023/10/21 05:28:53;;;;;;;36.35;20.23;;;9.20;99.90;;;;;;5071704;28;20051;-78
2023/10/21 05:31:19;;;;;;;38.15;18.55;;;9.20;99.90;;;;;;5071684;28;20056;-78
2023/10/21 05:33:45;;;;;;;42.38;20.55;;;9.20;99.90;;;;;;5071915;28;20119;-78
2023/10/21 05:36:11;;;;;;;35.17;17.92;;;9.20;99.90;;;;;;5071080;28;20079;-77
2023/10/21 05:38:36;;;;;;;34.08;18.23;;;9.10;99.90;;;;;;5068995;28;20048;-78
2023/10/21 05:41:03;;;;;;;35.05;17.83;;;9.20;99.90;;;;;;5067591;28;20048;-78
2023/10/21 05:43:29;;;;;;;35.70;19.40;;;9.10;99.90;;;;;;5054241;28;20044;-78
2023/10/21 05:45:54;;;;;;;36.85;17.27;;;9.20;99.90;;;;;;5053694;28;20048;-78
2023/10/21 05:48:20;;;;;;;34.45;17.60;;;9.20;99.90;;;;;;5057243;28;20071;-78
2023/10/21 05:50:47;;;;;;;37.95;19.38;;;9.10;99.90;;;;;;5071427;28;20497;-78
2023/10/21 05:53:13;;;;;;;35.70;19.42;;;9.20;99.90;;;;;;5072228;28;20190;-77
2023/10/21 05:55:43;;;;;;;33.80;16.42;;;9.20;99.90;;;;;;5071576;28;20055;-78
2023/10/21 05:58:09;;;;;;;35.92;19.58;;;9.20;99.90;;;;;;5071913;28;20056;-78
2023/10/21 06:00:38;;;;;;;38.80;17.92;;;9.20;99.90;;;;;;5070177;28;20397;-76
2023/10/21 06:03:07;;;;;;;38.83;18.45;;;9.20;99.90;;;;;;5071155;28;20370;-78
2023/10/21 06:05:33;;;;;;;32.72;18.95;;;9.20;99.90;;;;;;5070925;28;20109;-77
2023/10/21 06:07:58;;;;;;;28.40;14.98;;;9.20;99.90;;;;;;5071160;28;20050;-78
2023/10/21 06:10:24;;;;;;;32.40;17.27;;;9.30;99.90;;;;;;5069802;28;20132;-78
2023/10/21 06:12:50;;;;;;;32.75;16.98;;;9.30;99.90;;;;;;5071362;28;20127;-77
2023/10/21 06:15:16;;;;;;;34.03;18.90;;;9.30;99.90;;;;;;5071832;28;20405;-78
2023/10/21 06:17:41;;;;;;;31.40;17.00;;;9.30;99.90;;;;;;5052719;28;20565;-77
2023/10/21 06:20:08;;;;;;;30.58;16.48;;;9.30;99.90;;;;;;5062108;28;20051;-76
2023/10/21 06:22:34;;;;;;;28.92;17.10;;;9.30;99.90;;;;;;5069213;28;20124;-77
2023/10/21 06:25:00;;;;;;;35.90;17.25;;;9.40;99.90;;;;;;5060119;28;20119;-78
2023/10/21 06:27:26;;;;;;;30.25;16.60;;;9.30;99.90;;;;;;5070295;28;20143;-78
2023/10/21 06:29:52;;;;;;;29.65;16.63;;;9.30;99.90;;;;;;5069273;28;20488;-78
2023/10/21 06:32:17;;;;;;;32.45;16.85;;;9.40;99.90;;;;;;5087130;28;20066;-78
2023/10/21 06:34:43;;;;;;;28.65;16.23;;;9.40;99.90;;;;;;5070037;28;20040;-77
2023/10/21 06:37:09;;;;;;;32.75;16.38;;;9.40;99.90;;;;;;5062750;28;20048;-80
2023/10/21 06:39:35;;;;;;;29.40;15.48;;;9.40;99.90;;;;;;5066642;28;20040;-77
2023/10/21 06:42:00;;;;;;;30.27;16.58;;;9.40;99.90;;;;;;5070626;28;20052;-78
2023/10/21 06:44:26;;;;;;;27.58;15.63;;;9.40;99.90;;;;;;5045912;28;20044;-78
2023/10/21 06:46:52;;;;;;;27.27;15.90;;;9.50;99.90;;;;;;5071169;28;20040;-79
2023/10/21 06:49:19;;;;;;;27.73;17.05;;;9.50;99.90;;;;;;5070081;28;20451;-80
2023/10/21 06:51:49;;;;;;;31.67;17.15;;;9.50;99.90;;;;;;5069860;28;20060;-78
2023/10/21 06:54:15;;;;;;;29.33;16.90;;;9.50;99.90;;;;;;5070226;28;20079;-79
2023/10/21 06:56:42;;;;;;;28.08;15.10;;;9.50;99.90;;;;;;5069850;28;20048;-77
2023/10/21 06:59:08;;;;;;;24.38;15.65;;;9.60;99.90;;;;;;5064663;28;20517;-78
2023/10/21 07:01:34;;;;;;;32.42;15.23;;;9.60;99.90;;;;;;5063634;28;20041;-79
2023/10/21 07:04:00;;;;;;;25.73;14.98;;;9.60;99.90;;;;;;5069579;28;20044;-78
2023/10/21 07:06:25;;;;;;;26.08;15.23;;;9.70;99.90;;;;;;5070439;28;20100;-79
2023/10/21 07:08:51;;;;;;;27.23;15.23;;;9.70;99.90;;;;;;5070320;28;20049;-78
2023/10/21 07:11:17;;;;;;;25.08;15.48;;;9.70;99.90;;;;;;5070992;28;20117;-78
2023/10/21 07:13:42;;;;;;;27.13;13.82;;;9.80;99.90;;;;;;5070381;28;20056;-78
2023/10/21 07:16:10;;;;;;;23.73;13.43;;;9.80;99.90;;;;;;5070770;28;20123;-78
2023/10/21 07:18:36;;;;;;;27.00;13.77;;;9.90;99.90;;;;;;5070176;28;20099;-78
2023/10/21 07:21:04;;;;;;;26.00;15.05;;;9.90;99.90;;;;;;5052540;28;20128;-77
2023/10/21 07:23:31;;;;;;;29.17;15.35;;;9.90;99.90;;;;;;5068135;28;20040;-78
2023/10/21 07:25:56;;;;;;;23.67;14.18;;;9.90;99.90;;;;;;5070591;28;20051;-79
2023/10/21 07:28:22;;;;;;;23.33;14.05;;;9.90;99.90;;;;;;5053297;28;20132;-78
2023/10/21 07:30:48;;;;;;;25.25;13.63;;;10.00;99.90;;;;;;5072509;28;20553;-75
2023/10/21 07:33:14;;;;;;;24.50;14.20;;;10.00;99.90;;;;;;5074587;28;20053;-78
2023/10/21 07:35:40;;;;;;;21.65;12.18;;;10.00;99.90;;;;;;5073568;28;20049;-78
2023/10/21 07:38:06;;;;;;;22.35;13.98;;;10.10;99.90;;;;;;5089116;28;20037;-79
2023/10/21 07:40:32;;;;;;;23.98;13.32;;;10.10;99.90;;;;;;5074156;28;20032;-77
2023/10/21 07:42:58;;;;;;;28.00;14.43;;;10.10;99.90;;;;;;5073769;28;20061;-79
2023/10/21 07:45:24;;;;;;;21.75;12.85;;;10.10;99.90;;;;;;5073474;28;20051;-77
2023/10/21 07:47:50;;;;;;;26.10;13.40;;;10.10;99.90;;;;;;5073206;28;20139;-75
2023/10/21 07:50:17;;;;;;;19.48;12.13;;;10.20;99.90;;;;;;5072309;28;20131;-78
2023/10/21 07:52:43;;;;;;;22.25;12.43;;;10.20;99.90;;;;;;5056302;28;20269;-79
2023/10/21 07:55:12;;;;;;;25.75;12.48;;;10.30;99.90;;;;;;5072406;28;20045;-76
2023/10/21 07:57:41;;;;;;;26.50;13.30;;;10.30;99.90;;;;;;5074411;28;20053;-76
2023/10/21 08:00:07;;;;;;;21.67;13.13;;;10.30;99.90;;;;;;5072024;28;20040;-76
2023/10/21 08:02:34;;;;;;;20.42;12.60;;;10.30;99.90;;;;;;5072940;28;20048;-77
2023/10/21 08:05:01;;;;;;;21.38;12.13;;;10.30;99.90;;;;;;5073448;28;20059;-77
2023/10/21 08:07:27;;;;;;;22.80;12.38;;;10.40;99.90;;;;;;5073278;28;20045;-77
2023/10/21 08:09:52;;;;;;;23.80;11.93;;;10.40;99.90;;;;;;5073756;28;20048;-76
2023/10/21 08:12:18;;;;;;;24.15;13.32;;;10.40;99.90;;;;;;5072371;28;20052;-76
2023/10/21 08:14:44;;;;;;;24.60;12.13;;;10.50;99.90;;;;;;5071475;28;20044;-77
2023/10/21 08:17:10;;;;;;;19.70;12.55;;;10.50;99.90;;;;;;5072505;28;20040;-79
2023/10/21 08:19:36;;;;;;;19.23;11.38;;;10.50;99.90;;;;;;5072979;28;20059;-76
2023/10/21 08:22:03;;;;;;;20.15;12.75;;;10.60;99.90;;;;;;5073362;28;20082;-78
2023/10/21 08:24:28;;;;;;;21.38;12.55;;;10.60;99.90;;;;;;5073670;28;20137;-79
2023/10/21 08:26:54;;;;;;;24.70;12.20;;;10.70;99.90;;;;;;5058525;28;20541;-78
2023/10/21 08:29:20;;;;;;;21.40;12.07;;;10.70;99.90;;;;;;5072821;28;20102;-78
2023/10/21 08:31:47;;;;;;;20.77;11.52;;;10.80;99.90;;;;;;5064186;28;20051;-77
2023/10/21 08:34:13;;;;;;;19.13;11.48;;;10.80;99.90;;;;;;5055334;28;20507;-78
2023/10/21 08:36:39;;;;;;;20.20;12.07;;;10.90;99.90;;;;;;5073330;28;20083;-79
2023/10/21 08:39:07;;;;;;;21.30;12.70;;;10.90;99.90;;;;;;5071946;28;20052;-78
2023/10/21 08:41:39;;;;;;;23.45;13.90;;;11.00;99.90;;;;;;5073280;28;20053;-76
2023/10/21 08:44:08;;;;;;;26.30;14.68;;;11.00;99.90;;;;;;5065555;28;20041;-77
2023/10/21 08:46:35;;;;;;;24.63;16.13;;;11.10;99.90;;;;;;5065430;28;20044;-77
2023/10/21 08:49:05;;;;;;;25.92;16.45;;;11.10;99.90;;;;;;5066516;28;20133;-75
2023/10/21 08:51:33;;;;;;;30.00;15.60;;;11.20;99.90;;;;;;5065176;28;20051;-76
2023/10/21 08:54:03;;;;;;;26.58;16.10;;;11.30;99.90;;;;;;5070637;28;20521;-76
2023/10/21 08:56:30;;;;;;;25.02;14.32;;;11.30;99.90;;;;;;5072418;28;20060;-76
2023/10/21 08:58:56;;;;;;;23.52;13.82;;;11.50;99.90;;;;;;5075400;28;20083;-76
2023/10/21 09:01:23;;;;;;;22.77;12.98;;;11.60;99.90;;;;;;5066152;28;20083;-76
2023/10/21 09:03:49;;;;;;;31.42;14.48;;;11.70;99.90;;;;;;5063301;28;20059;-76
2023/10/21 09:06:17;;;;;;;21.45;13.18;;;12.00;99.90;;;;;;5062510;28;20105;-76
2023/10/21 09:08:45;;;;;;;18.27;9.07;;;12.10;99.90;;;;;;5072694;28;20483;-76
2023/10/21 09:11:16;;;;;;;21.80;11.40;;;12.20;99.90;;;;;;4889416;28;21008;-76
2023/10/21 09:13:42;;;;;;;18.02;11.65;;;12.30;99.90;;;;;;4874459;28;71469;-75
2023/10/21 09:16:28;;;;;;;16.55;11.00;;;12.30;99.90;;;;;;5009804;28;20547;-75
2023/10/21 09:18:59;;;;;;;14.43;10.50;;;12.40;99.90;;;;;;5079512;28;20040;-75
2023/10/21 09:21:32;;;;;;;16.98;10.95;;;12.50;99.90;;;;;;5081945;28;20506;-76
2023/10/21 09:23:59;;;;;;;18.38;10.90;;;12.40;99.90;;;;;;5086617;28;20071;-76
2023/10/21 09:26:33;;;;;;;15.50;10.27;;;12.50;99.90;;;;;;5091121;28;20610;-76
2023/10/21 09:29:10;;;;;;;16.20;9.55;;;12.60;99.90;;;;;;5091068;28;20051;-78
2023/10/21 09:31:48;;;;;;;12.93;10.15;;;12.70;99.90;;;;;;5079462;28;20075;-77
2023/10/21 09:34:31;;;;;;;13.52;9.93;;;12.70;99.90;;;;;;5091941;28;20416;-77
2023/10/21 09:37:05;;;;;;;14.77;9.95;;;12.70;99.90;;;;;;5091928;28;20048;-78
2023/10/21 09:39:43;;;;;;;15.45;9.95;;;12.70;99.90;;;;;;5072702;28;20040;-77
2023/10/21 09:42:08;;;;;;;14.57;9.98;;;12.80;99.90;;;;;;5074419;28;20052;-75
2023/10/21 09:44:35;;;;;;;15.77;10.05;;;12.90;99.90;;;;;;5074471;28;20068;-78
2023/10/21 09:47:05;;;;;;;16.52;10.05;;;13.00;99.90;;;;;;5091273;28;20047;-77
2023/10/21 09:49:40;;;;;;;16.73;9.77;;;13.00;99.90;;;;;;5091401;28;20040;-76
2023/10/21 09:52:15;;;;;;;20.33;10.05;;;12.90;99.90;;;;;;5087391;28;20090;-77
2023/10/21 09:54:50;;;;;;;17.98;9.20;;;12.90;99.90;;;;;;5092157;28;20109;-79
2023/10/21 09:57:16;;;;;;;14.27;9.13;;;13.00;99.90;;;;;;5086403;28;20131;-78
2023/10/21 09:59:44;;;;;;;12.82;9.43;;;13.00;99.90;;;;;;5082742;28;20066;-76
2023/10/21 10:02:11;;;;;;;15.70;9.15;;;13.00;99.90;;;;;;5080336;28;20054;-76
2023/10/21 10:04:39;;;;;;;13.40;9.02;;;13.00;99.90;;;;;;5089247;28;20102;-77
2023/10/21 10:07:09;;;;;;;12.68;8.63;;;13.10;99.90;;;;;;5070945;28;20044;-78
2023/10/21 10:09:37;;;;;;;10.68;7.43;;;13.10;99.90;;;;;;5070200;28;20599;-76
2023/10/21 10:12:09;;;;;;;12.10;6.70;;;13.10;99.90;;;;;;5090846;28;20048;-75
2023/10/21 10:14:36;;;;;;;12.10;5.60;;;13.20;99.90;;;;;;5080870;28;20040;-76
2023/10/21 10:17:05;;;;;;;16.02;6.22;;;13.20;99.90;;;;;;5099979;28;20040;-76
2023/10/21 10:19:42;;;;;;;11.57;5.55;;;13.20;99.90;;;;;;5101511;28;20042;-77
2023/10/21 10:22:18;;;;;;;5.65;3.78;;;13.30;99.90;;;;;;5098787;28;20498;-77
2023/10/21 10:24:55;;;;;;;7.45;3.97;;;13.30;99.90;;;;;;5105491;28;20082;-76
2023/10/21 10:27:34;;;;;;;7.95;4.60;;;13.30;99.90;;;;;;5105243;28;20101;-79
2023/10/21 10:30:00;;;;;;;10.38;4.40;;;13.30;99.90;;;;;;5107392;28;20044;-75
2023/10/21 10:32:29;;;;;;;6.68;3.80;;;13.30;99.90;;;;;;5111087;28;20104;-78
2023/10/21 10:34:57;;;;;;;11.65;4.10;;;13.30;99.90;;;;;;5086705;28;20092;-76
2023/10/21 10:37:29;;;;;;;9.15;4.15;;;13.30;99.90;;;;;;5094603;28;20108;-77
2023/10/21 10:39:54;;;;;;;9.10;3.40;;;13.30;99.90;;;;;;5111421;28;20032;-75
2023/10/21 10:42:24;;;;;;;8.50;3.58;;;13.30;99.90;;;;;;5106979;28;20430;-75
2023/10/21 10:44:51;;;;;;;7.47;3.40;;;13.40;99.90;;;;;;5095269;28;20062;-74
2023/10/21 10:47:17;;;;;;;9.95;3.63;;;13.30;99.90;;;;;;5094505;28;20052;-73
2023/10/21 10:50:00;;;;;;;4.78;3.08;;;13.40;99.90;;;;;;5092398;28;20040;-75
2023/10/21 10:52:33;;;;;;;9.15;3.47;;;13.40;99.90;;;;;;5090796;28;20055;-74
2023/10/21 10:55:03;;;;;;;9.53;4.30;;;13.40;99.90;;;;;;5087078;28;20051;-73
2023/10/21 10:57:29;;;;;;;5.00;2.72;;;13.40;99.90;;;;;;5086269;28;20055;-73
2023/10/21 10:59:55;;;;;;;7.40;2.80;;;13.40;99.90;;;;;;5090361;28;20444;-74
2023/10/21 11:02:23;;;;;;;4.97;3.00;;;13.40;99.90;;;;;;5089551;28;20044;-73
2023/10/21 11:04:49;;;;;;;4.72;2.78;;;13.30;99.90;;;;;;5097851;28;20118;-73
2023/10/21 11:07:19;;;;;;;5.90;2.95;;;13.40;99.90;;;;;;5095092;28;20437;-73
2023/10/21 11:09:45;;;;;;;7.75;2.72;;;13.00;99.90;;;;;;5088619;28;20079;-73
2023/10/21 11:12:14;;;;;;;5.07;2.60;;;13.40;99.90;;;;;;5095077;28;20444;-73
2023/10/21 11:14:40;;;;;;;4.20;2.53;;;13.40;99.90;;;;;;5095156;28;20132;-72
2023/10/21 11:17:06;;;;;;;4.60;2.42;;;13.50;99.90;;;;;;5093772;28;20044;-72
2023/10/21 11:19:32;;;;;;;4.80;2.40;;;13.50;99.90;;;;;;5095555;28;20044;-75
2023/10/21 11:21:58;;;;;;;2.55;1.63;;;13.50;99.90;;;;;;5093019;28;20269;-73
2023/10/21 11:24:26;;;;;;;2.83;1.70;;;13.40;99.90;;;;;;5094389;28;20044;-74
2023/10/21 11:26:52;;;;;;;2.95;1.77;;;13.30;99.90;;;;;;5091147;28;20052;-75
2023/10/21 11:29:19;;;;;;;2.55;1.65;;;13.30;99.90;;;;;;5092619;28;20044;-74
2023/10/21 11:31:45;;;;;;;3.33;1.48;;;13.20;99.90;;;;;;5093143;28;20056;-73
2023/10/21 11:34:14;;;;;;;3.05;1.73;;;13.20;99.90;;;;;;5090784;28;20044;-72
2023/10/21 11:36:46;;;;;;;1.35;1.25;;;13.20;99.90;;;;;;5092483;28;20485;-74
2023/10/21 11:39:14;;;;;;;2.92;1.67;;;13.20;99.90;;;;;;5090038;28;20036;-74
2023/10/21 11:41:47;;;;;;;3.80;1.77;;;13.20;99.90;;;;;;5089791;28;20127;-76
2023/10/21 11:44:15;;;;;;;4.22;1.90;;;13.30;99.90;;;;;;5066813;28;20055;-74
2023/10/21 11:46:41;;;;;;;3.17;1.67;;;13.30;99.90;;;;;;5087962;28;20044;-74
2023/10/21 11:49:13;;;;;;;4.13;1.73;;;13.40;99.90;;;;;;5090916;28;20040;-73
2023/10/21 11:51:46;;;;;;;3.25;1.90;;;13.40;99.90;;;;;;5093750;28;20212;-73
2023/10/21 11:57:37;;;;;;;;;;;13.40;99.90;;;;;;5090720;28;20052;-72
2023/10/21 12:30:27;;;;;;;6.70;1.67;;;13.00;99.90;;;;;;5089923;28;20036;-72
2023/10/21 12:42:47;;;;;;;2.00;1.10;;;13.20;99.90;;;;;;5093215;28;20048;-74
2023/10/21 12:45:18;;;;;;;2.60;1.00;;;13.30;99.90;;;;;;5093847;28;20063;-76
2023/10/21 12:47:48;;;;;;;5.53;1.33;;;13.30;99.90;;;;;;5075517;28;20055;-74
2023/10/21 12:50:16;;;;;;;3.13;1.25;;;13.40;99.90;;;;;;5085774;28;20401;-74
2023/10/21 12:52:47;;;;;;;2.17;1.20;;;13.40;99.90;;;;;;5090025;28;20036;-74
2023/10/21 12:55:14;;;;;;;1.35;1.10;;;13.50;99.90;;;;;;5093756;28;20052;-75
2023/10/21 12:57:43;;;;;;;2.78;1.20;;;13.50;99.90;;;;;;5092919;28;20051;-74
2023/10/21 13:00:09;;;;;;;2.83;1.27;;;13.50;99.90;;;;;;5074744;28;20076;-73
2023/10/21 13:02:36;;;;;;;5.85;1.50;;;13.60;99.90;;;;;;5087978;28;20197;-73
2023/10/21 13:05:03;;;;;;;2.90;1.00;;;13.70;99.90;;;;;;5081709;28;20044;-74
2023/10/21 13:07:32;;;;;;;9.88;1.52;;;13.70;99.90;;;;;;5088085;28;20052;-76
2023/10/21 13:09:58;;;;;;;4.13;1.30;;;13.70;99.90;;;;;;5056573;28;20118;-75
2023/10/21 13:12:25;;;;;;;2.83;1.20;;;13.80;99.90;;;;;;5092834;28;20052;-75
2023/10/21 13:14:52;;;;;;;2.08;1.40;;;13.90;99.90;;;;;;5087681;28;20045;-76
2023/10/21 13:17:18;;;;;;;4.63;1.50;;;14.00;99.90;;;;;;5091382;28;20482;-77
2023/10/21 13:19:44;;;;;;;1.63;1.00;;;13.90;99.90;;;;;;5091851;28;20036;-76
2023/10/21 13:22:10;;;;;;;4.65;1.60;;;14.00;99.90;;;;;;5091097;28;20450;-74